sensor_id;sensor_type;location;lat;lon;timestamp;pressure;altitude;pressure_sealevel;temperature;humidity
44138;BME280;29800;55.942;37.314;2022-10-18T00:02:02;100040.91;;;9.42;71.17
44138;BME280;29800;55.942;37.314;2022-10-18T00:04:28;100026.16;;;9.43;71.61
44138;BME280;29800;55.942;37.314;2022-10-18T00:06:55;100031.38;;;9.44;71.32
44138;BME280;29800;55.942;37.314;2022-10-18T00:09:21;100044.34;;;9.49;71.16
44138;BME280;29800;55.942;37.314;2022-10-18T00:11:47;100020.09;;;9.52;70.84
44138;BME280;29800;55.942;37.314;2022-10-18T00:14:13;100013.81;;;9.52;70.91
44138;BME280;29800;55.942;37.314;2022-10-18T00:16:39;100012.63;;;9.48;70.71
44138;BME280;29800;55.942;37.314;2022-10-18T00:19:05;100010.84;;;9.42;70.69
44138;BME280;29800;55.942;37.314;2022-10-18T00:21:31;100011.53;;;9.37;70.81
44138;BME280;29800;55.942;37.314;2022-10-18T00:23:57;100003.47;;;9.30;70.75
44138;BME280;29800;55.942;37.314;2022-10-18T00:26:26;100002.88;;;9.28;71.13
44138;BME280;29800;55.942;37.314;2022-10-18T00:28:55;100007.13;;;9.24;70.95
44138;BME280;29800;55.942;37.314;2022-10-18T00:33:50;100001.53;;;9.19;71.94
44138;BME280;29800;55.942;37.314;2022-10-18T00:36:17;100003.31;;;9.13;71.68
44138;BME280;29800;55.942;37.314;2022-10-18T00:38:43;99992.63;;;9.12;71.43
44138;BME280;29800;55.942;37.314;2022-10-18T00:41:12;99990.13;;;9.10;72.19
44138;BME280;29800;55.942;37.314;2022-10-18T00:43:58;99984.56;;;9.17;71.62
44138;BME280;29800;55.942;37.314;2022-10-18T00:46:30;99980.03;;;9.11;71.52
44138;BME280;29800;55.942;37.314;2022-10-18T00:48:59;99975.50;;;9.05;71.94
44138;BME280;29800;55.942;37.314;2022-10-18T00:51:30;99967.53;;;9.03;71.83
44138;BME280;29800;55.942;37.314;2022-10-18T00:53:57;99965.50;;;8.98;71.93
44138;BME280;29800;55.942;37.314;2022-10-18T00:56:24;99973.09;;;8.96;71.75
44138;BME280;29800;55.942;37.314;2022-10-18T00:58:50;99977.97;;;8.94;71.54
44138;BME280;29800;55.942;37.314;2022-10-18T01:01:17;99978.22;;;8.93;71.47
44138;BME280;29800;55.942;37.314;2022-10-18T01:03:43;99973.22;;;8.90;71.50
44138;BME280;29800;55.942;37.314;2022-10-18T01:06:09;99972.38;;;8.89;71.54
44138;BME280;29800;55.942;37.314;2022-10-18T01:11:49;99969.78;;;8.94;72.15
44138;BME280;29800;55.942;37.314;2022-10-18T01:14:26;99966.94;;;8.89;71.91
44138;BME280;29800;55.942;37.314;2022-10-18T01:17:26;99967.97;;;8.88;72.16
44138;BME280;29800;55.942;37.314;2022-10-18T01:25:37;99962.03;;;8.79;72.36
44138;BME280;29800;55.942;37.314;2022-10-18T01:28:34;99954.78;;;8.85;72.40
44138;BME280;29800;55.942;37.314;2022-10-18T01:31:04;99949.81;;;8.82;72.56
44138;BME280;29800;55.942;37.314;2022-10-18T01:33:51;99950.56;;;8.89;72.48
44138;BME280;29800;55.942;37.314;2022-10-18T01:36:36;99953.38;;;8.82;72.57
44138;BME280;29800;55.942;37.314;2022-10-18T01:39:11;99941.84;;;8.80;72.65
44138;BME280;29800;55.942;37.314;2022-10-18T01:41:42;99936.03;;;8.77;72.00
44138;BME280;29800;55.942;37.314;2022-10-18T01:44:13;99933.75;;;8.74;72.68
44138;BME280;29800;55.942;37.314;2022-10-18T01:46:41;99935.66;;;8.73;72.65
44138;BME280;29800;55.942;37.314;2022-10-18T01:49:08;99940.06;;;8.74;72.69
44138;BME280;29800;55.942;37.314;2022-10-18T01:51:35;99939.00;;;8.75;73.08
44138;BME280;29800;55.942;37.314;2022-10-18T01:54:01;99936.03;;;8.77;72.85
44138;BME280;29800;55.942;37.314;2022-10-18T01:59:38;99930.00;;;8.87;72.26
44138;BME280;29800;55.942;37.314;2022-10-18T02:02:14;99923.72;;;8.86;72.92
44138;BME280;29800;55.942;37.314;2022-10-18T02:05:04;99923.84;;;8.91;72.51
44138;BME280;29800;55.942;37.314;2022-10-18T02:07:39;99932.72;;;8.87;72.90
44138;BME280;29800;55.942;37.314;2022-10-18T02:10:14;99921.59;;;8.88;72.18
44138;BME280;29800;55.942;37.314;2022-10-18T02:12:43;99919.94;;;8.87;72.34
44138;BME280;29800;55.942;37.314;2022-10-18T02:15:13;99921.47;;;8.83;72.27
44138;BME280;29800;55.942;37.314;2022-10-18T02:17:43;99919.78;;;8.82;72.80
44138;BME280;29800;55.942;37.314;2022-10-18T02:20:12;99916.22;;;8.81;72.63
44138;BME280;29800;55.942;37.314;2022-10-18T02:22:41;99917.06;;;8.82;72.45
44138;BME280;29800;55.942;37.314;2022-10-18T02:25:17;99904.38;;;8.88;72.16
44138;BME280;29800;55.942;37.314;2022-10-18T02:27:45;99897.13;;;8.93;72.32
44138;BME280;29800;55.942;37.314;2022-10-18T02:30:11;99890.50;;;9.01;71.67
44138;BME280;29800;55.942;37.314;2022-10-18T02:32:45;99889.34;;;9.09;71.92
44138;BME280;29800;55.942;37.314;2022-10-18T02:36:07;99889.22;;;9.15;71.52
44138;BME280;29800;55.942;37.314;2022-10-18T02:38:13;99885.28;;;9.11;71.00
44138;BME280;29800;55.942;37.314;2022-10-18T02:40:41;99882.19;;;9.08;71.06
44138;BME280;29800;55.942;37.314;2022-10-18T02:43:07;99870.56;;;9.00;71.12
44138;BME280;29800;55.942;37.314;2022-10-18T02:45:33;99860.59;;;8.94;71.14
44138;BME280;29800;55.942;37.314;2022-10-18T02:47:59;99858.56;;;8.90;71.40
44138;BME280;29800;55.942;37.314;2022-10-18T02:50:25;99856.53;;;8.85;71.73
44138;BME280;29800;55.942;37.314;2022-10-18T02:52:51;99855.38;;;8.81;71.62
44138;BME280;29800;55.942;37.314;2022-10-18T02:55:17;99852.28;;;8.77;71.58
44138;BME280;29800;55.942;37.314;2022-10-18T02:57:43;99847.06;;;8.76;71.96
44138;BME280;29800;55.942;37.314;2022-10-18T03:00:10;99849.16;;;8.74;71.91
44138;BME280;29800;55.942;37.314;2022-10-18T03:02:36;99836.59;;;8.73;72.09
44138;BME280;29800;55.942;37.314;2022-10-18T03:05:02;99843.34;;;8.70;71.81
44138;BME280;29800;55.942;37.314;2022-10-18T03:07:29;99832.66;;;8.69;72.12
44138;BME280;29800;55.942;37.314;2022-10-18T03:09:55;99832.91;;;8.67;72.37
44138;BME280;29800;55.942;37.314;2022-10-18T03:12:21;99826.63;;;8.67;72.38
44138;BME280;29800;55.942;37.314;2022-10-18T03:14:47;99819.38;;;8.60;72.53
44138;BME280;29800;55.942;37.314;2022-10-18T03:17:13;99818.66;;;8.65;72.47
44138;BME280;29800;55.942;37.314;2022-10-18T03:19:39;99818.91;;;8.63;72.71
44138;BME280;29800;55.942;37.314;2022-10-18T03:22:05;99810.13;;;8.61;72.72
44138;BME280;29800;55.942;37.314;2022-10-18T03:24:31;99809.53;;;8.59;73.14
44138;BME280;29800;55.942;37.314;2022-10-18T03:26:57;99805.13;;;8.58;72.99
44138;BME280;29800;55.942;37.314;2022-10-18T03:29:23;99802.66;;;8.57;72.39
44138;BME280;29800;55.942;37.314;2022-10-18T03:31:49;99802.41;;;8.58;72.55
44138;BME280;29800;55.942;37.314;2022-10-18T03:34:15;99799.91;;;8.57;72.67
44138;BME280;29800;55.942;37.314;2022-10-18T03:36:42;99790.28;;;8.54;72.62
44138;BME280;29800;55.942;37.314;2022-10-18T03:39:10;99788.66;;;8.53;72.76
44138;BME280;29800;55.942;37.314;2022-10-18T03:41:36;99789.13;;;8.50;72.42
44138;BME280;29800;55.942;37.314;2022-10-18T03:44:03;99787.91;;;8.46;72.42
44138;BME280;29800;55.942;37.314;2022-10-18T03:46:29;99774.53;;;8.44;72.44
44138;BME280;29800;55.942;37.314;2022-10-18T03:48:55;99760.47;;;8.41;72.12
44138;BME280;29800;55.942;37.314;2022-10-18T03:51:21;99758.22;;;8.38;72.44
44138;BME280;29800;55.942;37.314;2022-10-18T03:53:47;99760.81;;;8.33;72.43
44138;BME280;29800;55.942;37.314;2022-10-18T03:56:13;99747.81;;;8.35;72.58
44138;BME280;29800;55.942;37.314;2022-10-18T03:58:39;99749.69;;;8.34;72.70
44138;BME280;29800;55.942;37.314;2022-10-18T04:01:05;99748.63;;;8.35;73.00
44138;BME280;29800;55.942;37.314;2022-10-18T04:03:31;99733.56;;;8.33;72.66
44138;BME280;29800;55.942;37.314;2022-10-18T04:05:57;99728.09;;;8.33;72.81
44138;BME280;29800;55.942;37.314;2022-10-18T04:08:28;99737.38;;;8.32;73.32
44138;BME280;29800;55.942;37.314;2022-10-18T04:10:54;99728.44;;;8.24;73.14
44138;BME280;29800;55.942;37.314;2022-10-18T04:13:20;99729.53;;;8.23;73.04
44138;BME280;29800;55.942;37.314;2022-10-18T04:15:46;99716.97;;;8.22;74.08
44138;BME280;29800;55.942;37.314;2022-10-18T04:18:13;99724.91;;;8.24;73.49
44138;BME280;29800;55.942;37.314;2022-10-18T04:20:39;99717.78;;;8.23;73.39
44138;BME280;29800;55.942;37.314;2022-10-18T04:23:05;99712.94;;;8.25;73.34
44138;BME280;29800;55.942;37.314;2022-10-18T04:25:31;99713.53;;;8.27;73.45
44138;BME280;29800;55.942;37.314;2022-10-18T04:27:57;99708.91;;;8.27;73.75
44138;BME280;29800;55.942;37.314;2022-10-18T04:30:23;99703.69;;;8.26;73.30
44138;BME280;29800;55.942;37.314;2022-10-18T04:32:49;99712.72;;;8.26;73.87
44138;BME280;29800;55.942;37.314;2022-10-18T04:35:15;99698.00;;;8.27;73.57
44138;BME280;29800;55.942;37.314;2022-10-18T04:37:41;99695.03;;;8.29;73.50
44138;BME280;29800;55.942;37.314;2022-10-18T04:40:08;99692.06;;;8.31;73.73
44138;BME280;29800;55.942;37.314;2022-10-18T04:42:34;99693.50;;;8.33;73.87
44138;BME280;29800;55.942;37.314;2022-10-18T04:45:01;99688.06;;;8.33;73.75
44138;BME280;29800;55.942;37.314;2022-10-18T04:47:29;99685.09;;;8.35;74.01
44138;BME280;29800;55.942;37.314;2022-10-18T04:49:56;99679.97;;;8.38;73.35
44138;BME280;29800;55.942;37.314;2022-10-18T04:52:22;99679.97;;;8.38;73.88
44138;BME280;29800;55.942;37.314;2022-10-18T04:54:48;99681.38;;;8.41;74.15
44138;BME280;29800;55.942;37.314;2022-10-18T04:57:14;99679.75;;;8.40;73.91
44138;BME280;29800;55.942;37.314;2022-10-18T04:59:40;99686.84;;;8.41;73.76
44138;BME280;29800;55.942;37.314;2022-10-18T05:02:06;99689.13;;;8.44;73.72
44138;BME280;29800;55.942;37.314;2022-10-18T05:04:32;99681.53;;;8.46;73.96
44138;BME280;29800;55.942;37.314;2022-10-18T05:06:59;99687.59;;;8.48;73.76
44138;BME280;29800;55.942;37.314;2022-10-18T05:09:25;99688.19;;;8.50;73.98
44138;BME280;29800;55.942;37.314;2022-10-18T05:11:51;99698.03;;;8.51;73.78
44138;BME280;29800;55.942;37.314;2022-10-18T05:14:17;99690.69;;;8.52;74.38
44138;BME280;29800;55.942;37.314;2022-10-18T05:16:43;99701.94;;;8.55;74.21
44138;BME280;29800;55.942;37.314;2022-10-18T05:19:10;99705.25;;;8.57;74.12
44138;BME280;29800;55.942;37.314;2022-10-18T05:21:39;99712.97;;;8.60;73.71
44138;BME280;29800;55.942;37.314;2022-10-18T05:24:05;99709.19;;;8.61;73.58
44138;BME280;29800;55.942;37.314;2022-10-18T05:26:31;99702.06;;;8.60;73.53
44138;BME280;29800;55.942;37.314;2022-10-18T05:28:57;99705.88;;;8.59;74.03
44138;BME280;29800;55.942;37.314;2022-10-18T05:31:23;99701.00;;;8.61;73.65
44138;BME280;29800;55.942;37.314;2022-10-18T05:33:49;99700.19;;;8.61;73.67
44138;BME280;29800;55.942;37.314;2022-10-18T05:36:15;99689.50;;;8.59;73.50
44138;BME280;29800;55.942;37.314;2022-10-18T05:38:42;99694.72;;;8.61;73.79
44138;BME280;29800;55.942;37.314;2022-10-18T05:41:09;99693.28;;;8.58;73.55
44138;BME280;29800;55.942;37.314;2022-10-18T05:43:35;99697.69;;;8.59;73.85
44138;BME280;29800;55.942;37.314;2022-10-18T05:46:01;99686.16;;;8.57;74.10
44138;BME280;29800;55.942;37.314;2022-10-18T05:48:27;99694.09;;;8.59;73.80
44138;BME280;29800;55.942;37.314;2022-10-18T05:50:57;99688.19;;;8.62;74.38
44138;BME280;29800;55.942;37.314;2022-10-18T05:53:24;99676.75;;;8.77;74.45
44138;BME280;29800;55.942;37.314;2022-10-18T05:55:50;99673.78;;;8.90;73.92
44138;BME280;29800;55.942;37.314;2022-10-18T05:58:16;99660.94;;;9.02;73.99
44138;BME280;29800;55.942;37.314;2022-10-18T06:00:42;99662.03;;;9.30;74.46
44138;BME280;29800;55.942;37.314;2022-10-18T06:03:08;99645.88;;;9.29;73.24
44138;BME280;29800;55.942;37.314;2022-10-18T06:05:36;99635.28;;;9.32;72.39
44138;BME280;29800;55.942;37.314;2022-10-18T06:08:05;99624.63;;;9.31;72.17
44138;BME280;29800;55.942;37.314;2022-10-18T06:10:31;99626.44;;;9.25;72.00
44138;BME280;29800;55.942;37.314;2022-10-18T06:12:57;99627.97;;;9.21;72.53
44138;BME280;29800;55.942;37.314;2022-10-18T06:15:23;99615.41;;;9.20;72.82
44138;BME280;29800;55.942;37.314;2022-10-18T06:17:49;99603.41;;;9.21;72.54
44138;BME280;29800;55.942;37.314;2022-10-18T06:20:15;99602.59;;;9.20;72.56
44138;BME280;29800;55.942;37.314;2022-10-18T06:22:41;99597.53;;;9.29;72.53
44138;BME280;29800;55.942;37.314;2022-10-18T06:25:08;99590.13;;;9.42;72.98
44138;BME280;29800;55.942;37.314;2022-10-18T06:27:34;99582.41;;;9.38;72.36
44138;BME280;29800;55.942;37.314;2022-10-18T06:30:00;99554.63;;;9.42;72.41
44138;BME280;29800;55.942;37.314;2022-10-18T06:32:26;99555.53;;;9.64;72.91
44138;BME280;29800;55.942;37.314;2022-10-18T06:34:52;99530.03;;;9.59;71.78
44138;BME280;29800;55.942;37.314;2022-10-18T06:37:18;99515.88;;;9.62;72.10
44138;BME280;29800;55.942;37.314;2022-10-18T06:39:44;99504.63;;;9.58;71.78
44138;BME280;29800;55.942;37.314;2022-10-18T06:42:10;99487.91;;;9.54;72.06
44138;BME280;29800;55.942;37.314;2022-10-18T06:44:37;99494.69;;;9.52;72.52
44138;BME280;29800;55.942;37.314;2022-10-18T06:47:03;99486.41;;;9.47;72.23
44138;BME280;29800;55.942;37.314;2022-10-18T06:49:29;99482.25;;;9.44;72.81
44138;BME280;29800;55.942;37.314;2022-10-18T06:51:55;99458.75;;;9.43;73.25
44138;BME280;29800;55.942;37.314;2022-10-18T06:54:22;99448.56;;;9.38;73.02
44138;BME280;29800;55.942;37.314;2022-10-18T06:56:48;99447.16;;;9.36;73.50
44138;BME280;29800;55.942;37.314;2022-10-18T06:59:14;99436.38;;;9.63;74.25
44138;BME280;29800;55.942;37.314;2022-10-18T07:01:40;99433.84;;;9.40;73.25
44138;BME280;29800;55.942;37.314;2022-10-18T07:04:06;99414.06;;;9.32;73.27
44138;BME280;29800;55.942;37.314;2022-10-18T07:06:32;99402.81;;;9.29;73.56
44138;BME280;29800;55.942;37.314;2022-10-18T07:08:58;99403.81;;;9.23;73.58
44138;BME280;29800;55.942;37.314;2022-10-18T07:11:25;99393.63;;;9.18;74.24
44138;BME280;29800;55.942;37.314;2022-10-18T07:13:53;99398.03;;;9.19;74.92
44138;BME280;29800;55.942;37.314;2022-10-18T07:16:20;99403.97;;;9.16;74.46
44138;BME280;29800;55.942;37.314;2022-10-18T07:18:50;99404.53;;;9.18;74.88
44138;BME280;29800;55.942;37.314;2022-10-18T07:21:19;99389.25;;;9.17;75.00
44138;BME280;29800;55.942;37.314;2022-10-18T07:23:45;99378.97;;;9.24;75.24
44138;BME280;29800;55.942;37.314;2022-10-18T07:26:19;99350.84;;;9.24;74.78
44138;BME280;29800;55.942;37.314;2022-10-18T07:28:52;99333.47;;;9.30;74.88
44138;BME280;29800;55.942;37.314;2022-10-18T07:31:20;99307.47;;;9.27;74.47
44138;BME280;29800;55.942;37.314;2022-10-18T07:33:46;99292.09;;;9.21;74.39
44138;BME280;29800;55.942;37.314;2022-10-18T07:36:13;99283.09;;;9.20;75.42
44138;BME280;29800;55.942;37.314;2022-10-18T07:38:39;99265.88;;;9.20;75.53
44138;BME280;29800;55.942;37.314;2022-10-18T07:41:06;99263.16;;;9.20;75.35
44138;BME280;29800;55.942;37.314;2022-10-18T07:43:33;99248.91;;;9.18;75.74
44138;BME280;29800;55.942;37.314;2022-10-18T07:46:02;99233.63;;;9.17;75.52
44138;BME280;29800;55.942;37.314;2022-10-18T07:48:28;99227.06;;;9.18;75.78
44138;BME280;29800;55.942;37.314;2022-10-18T07:50:57;99219.78;;;9.24;76.27
44138;BME280;29800;55.942;37.314;2022-10-18T07:53:24;99220.09;;;9.27;75.85
44138;BME280;29800;55.942;37.314;2022-10-18T07:55:50;99196.59;;;9.26;75.73
44138;BME280;29800;55.942;37.314;2022-10-18T07:58:16;99187.31;;;9.27;75.51
44138;BME280;29800;55.942;37.314;2022-10-18T08:00:42;99177.56;;;9.31;75.79
44138;BME280;29800;55.942;37.314;2022-10-18T08:03:08;99159.19;;;9.27;75.68
44138;BME280;29800;55.942;37.314;2022-10-18T08:05:34;99133.72;;;9.21;75.95
44138;BME280;29800;55.942;37.314;2022-10-18T08:08:00;99116.72;;;9.14;75.72
44138;BME280;29800;55.942;37.314;2022-10-18T08:10:26;99080.66;;;9.12;76.07
44138;BME280;29800;55.942;37.314;2022-10-18T08:12:52;99045.38;;;9.05;76.69
44138;BME280;29800;55.942;37.314;2022-10-18T08:15:19;99052.41;;;9.01;76.75
44138;BME280;29800;55.942;37.314;2022-10-18T08:17:48;99051.19;;;9.14;76.70
44138;BME280;29800;55.942;37.314;2022-10-18T08:20:14;99040.28;;;9.14;77.04
44138;BME280;29800;55.942;37.314;2022-10-18T08:22:40;99033.66;;;9.10;76.80
44138;BME280;29800;55.942;37.314;2022-10-18T08:25:07;99018.22;;;9.20;77.51
44138;BME280;29800;55.942;37.314;2022-10-18T08:27:33;99012.16;;;9.13;77.16
44138;BME280;29800;55.942;37.314;2022-10-18T08:29:59;98976.34;;;9.10;76.93
44138;BME280;29800;55.942;37.314;2022-10-18T08:32:29;98952.91;;;9.14;77.13
44138;BME280;29800;55.942;37.314;2022-10-18T08:34:55;98962.44;;;9.11;77.22
44138;BME280;29800;55.942;37.314;2022-10-18T08:37:21;98940.44;;;9.23;77.67
44138;BME280;29800;55.942;37.314;2022-10-18T08:39:47;98946.28;;;9.37;77.04
44138;BME280;29800;55.942;37.314;2022-10-18T08:44:50;98965.75;;;9.51;76.33
44138;BME280;29800;55.942;37.314;2022-10-18T08:47:33;98973.41;;;9.49;76.00
44138;BME280;29800;55.942;37.314;2022-10-18T08:50:05;98980.75;;;9.43;76.47
44138;BME280;29800;55.942;37.314;2022-10-18T08:57:51;98975.00;;;9.45;75.96
44138;BME280;29800;55.942;37.314;2022-10-18T09:00:25;98961.91;;;9.47;76.34
44138;BME280;29800;55.942;37.314;2022-10-18T09:05:50;98974.28;;;9.54;76.14
44138;BME280;29800;55.942;37.314;2022-10-18T09:08:33;98957.03;;;9.54;76.19
44138;BME280;29800;55.942;37.314;2022-10-18T09:11:18;98972.09;;;9.56;76.76
44138;BME280;29800;55.942;37.314;2022-10-18T09:16:49;98944.81;;;9.62;76.21
44138;BME280;29800;55.942;37.314;2022-10-18T09:22:01;98909.56;;;9.65;76.54
44138;BME280;29800;55.942;37.314;2022-10-18T09:24:39;98900.81;;;9.63;76.57
44138;BME280;29800;55.942;37.314;2022-10-18T09:27:17;98892.63;;;9.63;77.01
44138;BME280;29800;55.942;37.314;2022-10-18T09:35:17;98875.22;;;9.74;76.78
44138;BME280;29800;55.942;37.314;2022-10-18T09:37:46;98866.47;;;9.72;76.93
44138;BME280;29800;55.942;37.314;2022-10-18T09:40:27;98855.03;;;9.81;77.02
44138;BME280;29800;55.942;37.314;2022-10-18T09:43:02;98848.44;;;9.82;77.43
44138;BME280;29800;55.942;37.314;2022-10-18T09:45:34;98850.38;;;9.81;77.19
44138;BME280;29800;55.942;37.314;2022-10-18T09:51:02;98820.31;;;9.86;77.25
44138;BME280;29800;55.942;37.314;2022-10-18T09:53:34;98812.38;;;9.85;77.00
44138;BME280;29800;55.942;37.314;2022-10-18T09:58:44;98809.41;;;9.91;77.07
44138;BME280;29800;55.942;37.314;2022-10-18T10:01:15;98798.19;;;9.88;77.21
44138;BME280;29800;55.942;37.314;2022-10-18T10:03:44;98787.78;;;9.85;77.10
44138;BME280;29800;55.942;37.314;2022-10-18T10:08:40;98782.91;;;9.92;77.25
44138;BME280;29800;55.942;37.314;2022-10-18T10:11:36;98781.81;;;9.98;77.01
44138;BME280;29800;55.942;37.314;2022-10-18T10:14:06;98773.66;;;10.08;76.51
44138;BME280;29800;55.942;37.314;2022-10-18T10:16:32;98774.97;;;9.96;77.21
44138;BME280;29800;55.942;37.314;2022-10-18T10:18:59;98772.53;;;9.94;77.22
44138;BME280;29800;55.942;37.314;2022-10-18T10:21:25;98780.72;;;9.89;77.79
44138;BME280;29800;55.942;37.314;2022-10-18T10:23:56;98757.19;;;9.93;78.16
44138;BME280;29800;55.942;37.314;2022-10-18T10:26:28;98758.59;;;10.01;78.27
44138;BME280;29800;55.942;37.314;2022-10-18T10:28:55;98749.28;;;10.02;78.15
44138;BME280;29800;55.942;37.314;2022-10-18T10:31:30;98754.78;;;10.07;78.31
44138;BME280;29800;55.942;37.314;2022-10-18T10:34:12;98757.78;;;10.16;78.63
44138;BME280;29800;55.942;37.314;2022-10-18T10:36:52;98750.69;;;10.20;78.49
44138;BME280;29800;55.942;37.314;2022-10-18T10:39:21;98753.97;;;10.22;77.92
44138;BME280;29800;55.942;37.314;2022-10-18T10:41:52;98746.88;;;10.26;78.33
44138;BME280;29800;55.942;37.314;2022-10-18T10:44:32;98741.38;;;10.31;77.99
44138;BME280;29800;55.942;37.314;2022-10-18T10:47:04;98737.59;;;10.32;78.42
44138;BME280;29800;55.942;37.314;2022-10-18T10:49:45;98739.78;;;10.40;78.37
44138;BME280;29800;55.942;37.314;2022-10-18T10:52:20;98729.41;;;10.42;78.11
44138;BME280;29800;55.942;37.314;2022-10-18T10:54:48;98721.19;;;10.42;78.08
44138;BME280;29800;55.942;37.314;2022-10-18T10:59:46;98713.53;;;10.50;78.48
44138;BME280;29800;55.942;37.314;2022-10-18T11:04:51;98720.09;;;10.59;78.36
44138;BME280;29800;55.942;37.314;2022-10-18T11:07:37;98712.16;;;10.68;78.60
44138;BME280;29800;55.942;37.314;2022-10-18T11:10:14;98718.44;;;10.68;78.26
44138;BME280;29800;55.942;37.314;2022-10-18T11:12:46;98710.22;;;10.68;78.20
44138;BME280;29800;55.942;37.314;2022-10-18T11:18:23;98696.50;;;10.83;78.61
44138;BME280;29800;55.942;37.314;2022-10-18T11:21:04;98702.56;;;10.85;78.49
44138;BME280;29800;55.942;37.314;2022-10-18T11:23:43;98708.56;;;10.88;78.93
44138;BME280;29800;55.942;37.314;2022-10-18T11:26:20;98703.34;;;10.86;78.73
44138;BME280;29800;55.942;37.314;2022-10-18T11:31:57;98697.84;;;10.96;78.79
44138;BME280;29800;55.942;37.314;2022-10-18T11:40:40;98690.94;;;11.19;78.77
44138;BME280;29800;55.942;37.314;2022-10-18T11:43:23;98700.25;;;11.24;79.08
44138;BME280;29800;55.942;37.314;2022-10-18T11:45:57;98684.34;;;11.26;79.08
44138;BME280;29800;55.942;37.314;2022-10-18T11:57:06;98687.69;;;11.67;80.59
44138;BME280;29800;55.942;37.314;2022-10-18T11:59:37;98681.88;;;11.74;80.87
44138;BME280;29800;55.942;37.314;2022-10-18T12:05:26;98690.00;;;12.00;81.53
44138;BME280;29800;55.942;37.314;2022-10-18T12:08:10;98690.19;;;12.08;81.78
44138;BME280;29800;55.942;37.314;2022-10-18T12:10:40;98684.41;;;12.15;81.69
44138;BME280;29800;55.942;37.314;2022-10-18T12:13:13;98692.03;;;12.23;82.07
44138;BME280;29800;55.942;37.314;2022-10-18T12:15:45;98681.00;;;12.28;81.94
44138;BME280;29800;55.942;37.314;2022-10-18T12:18:17;98696.00;;;12.36;82.08
44138;BME280;29800;55.942;37.314;2022-10-18T12:20:48;98688.56;;;12.42;82.32
44138;BME280;29800;55.942;37.314;2022-10-18T12:26:02;98692.81;;;12.58;82.14
44138;BME280;29800;55.942;37.314;2022-10-18T12:28:58;98701.00;;;12.63;81.63
44138;BME280;29800;55.942;37.314;2022-10-18T12:31:37;98694.78;;;12.82;81.29
44138;BME280;29800;55.942;37.314;2022-10-18T12:45:45;98687.22;;;13.22;80.08
44138;BME280;29800;55.942;37.314;2022-10-18T12:48:26;98671.13;;;13.34;79.16
44138;BME280;29800;55.942;37.314;2022-10-18T12:51:17;98696.63;;;13.40;78.81
44138;BME280;29800;55.942;37.314;2022-10-18T12:54:10;98696.94;;;13.38;78.81
44138;BME280;29800;55.942;37.314;2022-10-18T12:56:55;98684.91;;;13.29;78.73
44138;BME280;29800;55.942;37.314;2022-10-18T13:09:25;98703.34;;;13.72;75.71
44138;BME280;29800;55.942;37.314;2022-10-18T13:12:00;98705.44;;;13.80;74.58
44138;BME280;29800;55.942;37.314;2022-10-18T13:14:56;98706.13;;;13.91;73.55
44138;BME280;29800;55.942;37.314;2022-10-18T13:17:47;98717.50;;;14.03;72.54
44138;BME280;29800;55.942;37.314;2022-10-18T13:30:59;98733.16;;;13.84;72.80
44138;BME280;29800;55.942;37.314;2022-10-18T13:33:34;98723.44;;;13.91;71.71
44138;BME280;29800;55.942;37.314;2022-10-18T13:36:23;98726.50;;;14.09;70.40
44138;BME280;29800;55.942;37.314;2022-10-18T13:39:03;98727.38;;;14.04;71.80
44138;BME280;29800;55.942;37.314;2022-10-18T13:44:23;98732.50;;;13.92;72.47
44138;BME280;29800;55.942;37.314;2022-10-18T13:49:47;98748.56;;;13.85;72.76
44138;BME280;29800;55.942;37.314;2022-10-18T13:53:10;98747.09;;;13.92;72.38
44138;BME280;29800;55.942;37.314;2022-10-18T13:56:06;98745.66;;;13.95;72.28
44138;BME280;29800;55.942;37.314;2022-10-18T14:01:39;98754.69;;;14.01;71.07
44138;BME280;29800;55.942;37.314;2022-10-18T14:07:26;98746.31;;;13.87;71.71
44138;BME280;29800;55.942;37.314;2022-10-18T14:09:56;98759.13;;;13.77;72.36
44138;BME280;29800;55.942;37.314;2022-10-18T14:12:44;98746.88;;;13.89;71.83
44138;BME280;29800;55.942;37.314;2022-10-18T14:15:16;98753.06;;;13.75;72.17
44138;BME280;29800;55.942;37.314;2022-10-18T14:17:52;98743.72;;;13.76;71.90
44138;BME280;29800;55.942;37.314;2022-10-18T14:20:28;98751.91;;;13.82;71.95
44138;BME280;29800;55.942;37.314;2022-10-18T14:25:47;98765.00;;;13.90;70.84
44138;BME280;29800;55.942;37.314;2022-10-18T14:28:18;98768.34;;;13.87;70.95
44138;BME280;29800;55.942;37.314;2022-10-18T14:31:03;98768.56;;;13.90;70.86
44138;BME280;29800;55.942;37.314;2022-10-18T14:33:45;98778.38;;;13.77;71.05
44138;BME280;29800;55.942;37.314;2022-10-18T14:36:14;98770.16;;;13.72;71.52
44138;BME280;29800;55.942;37.314;2022-10-18T14:39:02;98773.47;;;13.74;71.66
44138;BME280;29800;55.942;37.314;2022-10-18T14:41:35;98784.25;;;13.90;70.02
44138;BME280;29800;55.942;37.314;2022-10-18T14:46:47;98778.75;;;13.90;69.57
44138;BME280;29800;55.942;37.314;2022-10-18T14:49:14;98785.50;;;13.78;70.07
44138;BME280;29800;55.942;37.314;2022-10-18T14:51:42;98792.28;;;13.86;70.27
44138;BME280;29800;55.942;37.314;2022-10-18T14:54:17;98794.75;;;13.88;70.27
44138;BME280;29800;55.942;37.314;2022-10-18T14:56:46;98800.38;;;13.77;70.65
44138;BME280;29800;55.942;37.314;2022-10-18T14:59:25;98810.88;;;13.70;71.30
44138;BME280;29800;55.942;37.314;2022-10-18T15:02:14;98821.38;;;13.68;71.34
44138;BME280;29800;55.942;37.314;2022-10-18T15:04:46;98824.19;;;13.63;71.52
44138;BME280;29800;55.942;37.314;2022-10-18T15:07:28;98827.31;;;13.75;70.55
44138;BME280;29800;55.942;37.314;2022-10-18T15:09:59;98835.00;;;13.78;70.24
44138;BME280;29800;55.942;37.314;2022-10-18T15:12:41;98843.19;;;13.84;69.16
44138;BME280;29800;55.942;37.314;2022-10-18T15:15:16;98838.97;;;13.67;69.67
44138;BME280;29800;55.942;37.314;2022-10-18T15:17:48;98852.31;;;13.55;69.52
44138;BME280;29800;55.942;37.314;2022-10-18T15:20:27;98858.75;;;13.45;70.02
44138;BME280;29800;55.942;37.314;2022-10-18T15:25:50;98854.66;;;13.67;68.33